createdAt,value
2019-06-01T00:02:18.726Z,16.55
2019-06-01T00:04:50.041Z,15.23
2019-06-01T00:07:19.901Z,16.05
2019-06-01T00:09:49.804Z,16.45
2019-06-01T00:12:20.920Z,16.15
2019-06-01T00:14:51.930Z,16.10
2019-06-01T00:17:21.770Z,16.15
2019-06-01T00:19:51.923Z,16.02
2019-06-01T00:22:21.752Z,16.15
2019-06-01T00:24:52.278Z,15.40
2019-06-01T00:27:22.281Z,16.93
2019-06-01T00:29:53.083Z,16.60
2019-06-01T00:32:23.017Z,16.73
2019-06-01T00:34:52.856Z,16.75
2019-06-01T00:37:22.681Z,15.43
2019-06-01T00:39:52.533Z,16.52
2019-06-01T00:42:22.397Z,16.05
2019-06-01T00:44:52.585Z,16.60
2019-06-01T00:47:22.431Z,15.43
2019-06-01T00:49:53.113Z,16.25
2019-06-01T00:52:23.074Z,15.60
2019-06-01T00:54:53.640Z,16.23
2019-06-01T00:57:23.516Z,16.10
2019-06-01T00:59:55.006Z,15.75
2019-06-01T01:02:25.061Z,16.60
2019-06-01T01:05:07.555Z,15.43
2019-06-01T01:07:38.324Z,15.95
2019-06-01T01:10:09.589Z,15.40
2019-06-01T01:12:57.489Z,16.32
2019-06-01T01:15:27.319Z,15.70
2019-06-01T01:17:57.183Z,16.12
2019-06-01T01:20:27.012Z,16.23
2019-06-01T01:22:56.848Z,16.73
2019-06-01T01:25:26.687Z,16.10
2019-06-01T01:27:57.063Z,16.35
2019-06-01T01:30:27.135Z,16.12
2019-06-01T01:32:58.964Z,16.23
2019-06-01T01:35:28.793Z,16.35
2019-06-01T01:37:59.394Z,15.60
2019-06-01T01:40:29.521Z,15.53
2019-06-01T01:42:59.350Z,15.03
2019-06-01T01:45:29.548Z,15.13
2019-06-01T01:47:59.381Z,15.23
2019-06-01T01:50:29.521Z,15.90
2019-06-01T01:52:59.356Z,16.20
2019-06-01T01:55:29.478Z,16.67
2019-06-01T01:57:59.506Z,17.30
2019-06-01T02:00:46.552Z,16.32
2019-06-01T02:03:16.449Z,16.70
2019-06-01T02:05:46.363Z,16.45
2019-06-01T02:08:16.483Z,16.62
2019-06-01T02:10:46.317Z,15.35
2019-06-01T02:13:16.149Z,16.50
2019-06-01T02:15:46.062Z,16.65
2019-06-01T02:18:15.909Z,15.78
2019-06-01T02:20:45.749Z,15.85
2019-06-01T02:23:15.837Z,15.95
2019-06-01T02:25:45.932Z,16.75
2019-06-01T02:28:15.756Z,17.17
2019-06-01T02:30:46.238Z,16.37
2019-06-01T02:33:16.068Z,17.10
2019-06-01T02:35:46.147Z,15.00
2019-06-01T02:38:15.986Z,15.68
2019-06-01T02:40:45.857Z,15.38
2019-06-01T02:43:15.857Z,16.02
2019-06-01T02:45:45.770Z,14.65
2019-06-01T02:48:15.846Z,15.50
2019-06-01T02:50:45.692Z,14.95
2019-06-01T02:53:15.593Z,16.10
2019-06-01T02:55:45.703Z,15.83
2019-06-01T02:58:15.538Z,15.78
2019-06-01T03:00:48.451Z,16.40
2019-06-01T03:03:18.647Z,16.73
2019-06-01T03:05:49.695Z,17.05
2019-06-01T03:08:20.198Z,16.85
2019-06-01T03:10:51.778Z,16.37
2019-06-01T03:13:24.807Z,16.73
2019-06-01T03:15:58.754Z,15.00
2019-06-01T03:18:31.217Z,15.00
2019-06-01T03:21:05.057Z,15.32
2019-06-01T03:23:35.737Z,14.87
2019-06-01T03:26:08.627Z,15.65
2019-06-01T03:28:41.077Z,16.23
2019-06-01T03:31:11.162Z,15.80
2019-06-01T03:33:40.991Z,16.23
2019-06-01T03:36:10.919Z,16.42
2019-06-01T03:38:41.240Z,16.90
2019-06-01T03:41:12.325Z,16.20
2019-06-01T03:43:42.249Z,15.72
2019-06-01T03:46:13.062Z,13.43
2019-06-01T03:48:43.053Z,14.15
2019-06-01T03:51:12.992Z,15.60
2019-06-01T03:53:43.093Z,15.13
2019-06-01T03:56:13.004Z,15.55
2019-06-01T03:58:42.841Z,16.55
2019-06-01T04:01:12.720Z,16.23
2019-06-01T04:03:42.549Z,16.93
2019-06-01T04:06:12.389Z,16.48
2019-06-01T04:08:42.466Z,15.48
2019-06-01T04:11:12.553Z,15.55
2019-06-01T04:13:42.382Z,17.20
2019-06-01T04:16:12.228Z,16.20
2019-06-01T04:18:42.055Z,16.17
2019-06-01T04:21:12.179Z,16.90
2019-06-01T04:23:42.040Z,17.37
2019-06-01T04:26:12.295Z,17.52
2019-06-01T04:28:42.209Z,16.67
2019-06-01T04:31:12.858Z,15.70
2019-06-01T04:33:43.014Z,16.85
2019-06-01T04:36:13.155Z,16.67
2019-06-01T04:38:43.014Z,18.02
2019-06-01T04:41:14.136Z,17.77
2019-06-01T04:43:45.149Z,16.48
2019-06-01T04:46:14.994Z,17.20
2019-06-01T04:48:45.072Z,16.40
2019-06-01T04:51:15.026Z,16.45
2019-06-01T04:53:44.872Z,18.02
2019-06-01T04:56:15.244Z,18.32
2019-06-01T04:58:45.216Z,18.60
2019-06-01T05:01:15.179Z,19.42
2019-06-01T05:03:45.053Z,20.20
2019-06-01T05:06:15.494Z,22.15
2019-06-01T05:08:45.621Z,21.77
2019-06-01T05:11:15.787Z,21.48
2019-06-01T05:13:45.921Z,22.77
2019-06-01T05:16:16.597Z,22.95
2019-06-01T05:18:46.562Z,22.82
2019-06-01T05:21:16.892Z,20.62
2019-06-01T05:23:46.780Z,22.25
2019-06-01T05:26:17.153Z,24.40
2019-06-01T05:28:47.086Z,23.65
2019-06-01T05:31:23.468Z,25.80
2019-06-01T05:33:49.420Z,26.33
2019-06-01T05:36:19.270Z,25.20
2019-06-01T05:38:49.093Z,23.52
2019-06-01T05:41:19.905Z,25.57
2019-06-01T05:43:49.880Z,25.90
2019-06-01T05:46:19.706Z,26.30
2019-06-01T05:48:49.793Z,25.20
2019-06-01T05:51:20.165Z,27.40
2019-06-01T05:53:50.273Z,26.02
2019-06-01T05:56:20.121Z,25.43
2019-06-01T05:58:49.952Z,26.07
2019-06-01T06:01:19.802Z,25.08
2019-06-01T06:03:49.693Z,24.85
2019-06-01T06:06:19.922Z,23.90
2019-06-01T06:08:49.837Z,23.32
2019-06-01T06:11:19.688Z,21.82
2019-06-01T06:13:49.777Z,24.12
2019-06-01T06:16:20.989Z,23.25
2019-06-01T06:18:51.298Z,21.75
2019-06-01T06:21:22.296Z,21.52
2019-06-01T06:23:52.253Z,21.62
2019-06-01T06:26:22.842Z,23.57
2019-06-01T06:28:52.796Z,23.10
2019-06-01T06:31:23.268Z,19.80
2019-06-01T06:33:56.954Z,19.90
2019-06-01T06:36:25.026Z,20.35
2019-06-01T06:38:54.931Z,18.67
2019-06-01T06:41:24.759Z,20.62
2019-06-01T06:43:54.870Z,19.15
2019-06-01T06:46:24.898Z,19.48
2019-06-01T06:48:55.811Z,18.90
2019-06-01T06:51:26.475Z,17.77
2019-06-01T06:53:56.382Z,17.55
2019-06-01T06:56:26.307Z,17.60
2019-06-01T06:58:56.216Z,16.37
2019-06-01T07:01:27.126Z,16.97
2019-06-01T07:04:11.591Z,17.07
2019-06-01T07:06:41.286Z,15.80
2019-06-01T07:09:11.148Z,15.65
2019-06-01T07:11:41.109Z,15.35
2019-06-01T07:14:10.958Z,14.63
2019-06-01T07:16:40.807Z,13.53
2019-06-01T07:19:10.735Z,13.85
2019-06-01T07:21:40.589Z,13.38
2019-06-01T07:24:10.523Z,13.28
2019-06-01T07:26:40.401Z,14.28
2019-06-01T07:29:10.302Z,15.20
2019-06-01T07:31:40.144Z,13.90
2019-06-01T07:34:09.998Z,13.20
2019-06-01T07:36:39.837Z,13.62
2019-06-01T07:39:09.734Z,12.40
2019-06-01T07:41:39.616Z,13.30
2019-06-01T07:44:09.618Z,12.85
2019-06-01T07:46:39.522Z,13.32
2019-06-01T07:49:09.365Z,12.50
2019-06-01T07:51:39.236Z,13.10
2019-06-01T07:54:09.192Z,11.97
2019-06-01T07:56:39.089Z,12.07
2019-06-01T07:59:08.933Z,13.18
2019-06-01T08:01:38.793Z,12.63
2019-06-01T08:04:08.646Z,13.38
2019-06-01T08:06:45.171Z,11.83
2019-06-01T08:09:10.047Z,12.35
2019-06-01T08:11:39.901Z,12.78
2019-06-01T08:14:09.809Z,12.82
2019-06-01T08:16:39.667Z,11.93
2019-06-01T08:19:09.514Z,12.50
2019-06-01T08:21:39.361Z,12.60
2019-06-01T08:24:09.277Z,13.40
2019-06-01T08:26:39.161Z,13.05
2019-06-01T08:29:09.004Z,12.30
2019-06-01T08:31:38.867Z,12.30
2019-06-01T08:34:08.780Z,12.58
2019-06-01T08:36:38.934Z,11.57
2019-06-01T08:39:08.797Z,12.55
2019-06-01T08:41:39.549Z,12.33
2019-06-01T08:44:09.758Z,12.53
2019-06-01T08:46:39.623Z,12.45
2019-06-01T08:49:09.475Z,13.00
2019-06-01T08:51:39.410Z,12.45
2019-06-01T08:54:09.267Z,12.18
2019-06-01T08:56:39.106Z,11.65
2019-06-01T08:59:09.964Z,11.43
2019-06-01T09:01:39.806Z,11.70
2019-06-01T09:04:09.746Z,10.80
2019-06-01T09:06:39.578Z,11.63
2019-06-01T09:09:11.881Z,11.63
2019-06-01T09:11:41.274Z,11.85
2019-06-01T09:14:11.138Z,11.45
2019-06-01T09:16:40.966Z,11.78
2019-06-01T09:19:11.596Z,12.50
2019-06-01T09:21:41.652Z,11.45
2019-06-01T09:24:11.540Z,11.88
2019-06-01T09:26:41.627Z,10.63
2019-06-01T09:29:11.508Z,10.82
2019-06-01T09:31:41.420Z,11.38
2019-06-01T09:34:11.269Z,11.57
2019-06-01T09:36:41.197Z,11.20
2019-06-01T09:39:11.061Z,11.20
2019-06-01T09:41:40.918Z,10.45
2019-06-01T09:44:10.769Z,12.55
2019-06-01T09:46:40.639Z,11.43
2019-06-01T09:49:10.812Z,11.08
2019-06-01T09:51:40.744Z,11.00
2019-06-01T09:54:10.580Z,12.40
2019-06-01T09:56:41.421Z,11.22
2019-06-01T09:59:11.341Z,12.15
2019-06-01T10:23:06.251Z,13.48
2019-06-01T10:25:38.300Z,13.30
2019-06-01T10:28:08.450Z,13.65
2019-06-01T10:30:39.943Z,13.55
2019-06-01T10:33:09.859Z,14.15
2019-06-01T10:35:39.688Z,13.53
2019-06-01T10:38:09.534Z,14.03
2019-06-01T10:40:39.880Z,13.88
2019-06-01T10:43:09.776Z,13.93
2019-06-01T10:45:39.967Z,15.23
2019-06-01T10:48:10.793Z,14.70
2019-06-01T10:50:40.726Z,13.88
2019-06-01T10:53:10.614Z,14.05
2019-06-01T10:55:40.455Z,12.53
2019-06-01T10:58:10.280Z,13.43
2019-06-01T11:00:46.718Z,20.43
2019-06-01T11:03:11.685Z,13.03
2019-06-01T11:05:41.520Z,12.70
2019-06-01T11:08:12.322Z,12.90
2019-06-01T11:10:43.247Z,13.45
2019-06-01T11:13:13.256Z,12.85
2019-06-01T11:15:43.347Z,13.43
2019-06-01T11:18:13.304Z,14.28
2019-06-01T11:20:43.637Z,12.93
2019-06-01T11:23:13.557Z,14.47
2019-06-01T11:25:43.775Z,13.13
2019-06-01T11:28:13.708Z,13.22
2019-06-01T11:30:43.965Z,13.45
2019-06-01T11:33:13.853Z,12.88
2019-06-01T11:35:43.697Z,12.68
2019-06-01T11:38:13.522Z,13.28
2019-06-01T11:40:44.814Z,13.60
2019-06-01T11:43:14.782Z,13.18
2019-06-01T11:45:45.231Z,12.65
2019-06-01T11:48:15.230Z,12.25
2019-06-01T11:50:45.418Z,12.43
2019-06-01T11:53:15.364Z,12.18
2019-06-01T11:55:45.539Z,12.80
2019-06-01T11:58:15.631Z,13.40
2019-06-01T12:00:45.838Z,13.30
2019-06-01T12:03:15.841Z,12.50
2019-06-01T12:05:46.114Z,13.15
2019-06-01T12:08:16.063Z,12.53
2019-06-01T12:10:45.910Z,12.90
2019-06-01T12:13:15.749Z,13.32
2019-06-01T12:15:46.421Z,12.45
2019-06-01T12:22:09.803Z,14.03
2019-06-01T12:24:40.950Z,12.95
2019-06-01T12:27:10.865Z,13.18
2019-06-01T12:29:41.496Z,12.93
2019-06-01T12:32:11.444Z,12.43
2019-06-01T12:34:41.954Z,13.22
2019-06-01T12:37:11.981Z,13.93
2019-06-01T12:39:42.323Z,13.55
2019-06-01T12:42:12.332Z,11.97
2019-06-01T12:44:42.159Z,12.70
2019-06-01T12:47:11.995Z,12.75
2019-06-01T12:49:42.208Z,13.58
2019-06-01T12:52:12.056Z,13.40
2019-06-01T12:54:42.918Z,12.20
2019-06-01T12:57:12.898Z,12.40
2019-06-01T12:59:43.202Z,12.47
2019-06-01T13:02:13.157Z,12.50
2019-06-01T13:04:44.724Z,13.28
2019-06-01T13:07:14.781Z,12.40
2019-06-01T13:09:44.605Z,13.13
2019-06-01T13:12:14.707Z,11.68
2019-06-01T13:14:45.176Z,13.22
2019-06-01T13:17:15.106Z,13.03
2019-06-01T13:19:45.330Z,13.03
2019-06-01T13:22:15.245Z,12.82
2019-06-01T13:24:45.779Z,13.03
2019-06-01T13:27:15.697Z,13.50
2019-06-01T13:29:45.806Z,14.53
2019-06-01T13:32:15.743Z,13.33
2019-06-01T13:34:47.033Z,13.55
2019-06-01T13:37:17.080Z,12.60
2019-06-01T13:39:52.590Z,13.62
2019-06-01T13:42:18.450Z,12.80
2019-06-01T13:44:49.510Z,12.98
2019-06-01T13:47:19.457Z,13.03
2019-06-01T13:49:50.114Z,13.80
2019-06-01T13:52:19.996Z,13.67
2019-06-01T13:54:50.622Z,14.03
2019-06-01T13:57:20.542Z,14.03
2019-06-01T13:59:50.911Z,13.32
2019-06-01T14:02:20.899Z,13.03
2019-06-01T14:04:52.038Z,12.25
2019-06-01T14:07:22.044Z,12.53
2019-06-01T14:09:52.503Z,12.98
2019-06-01T14:12:23.602Z,13.50
2019-06-01T14:14:53.599Z,14.07
2019-06-01T14:17:23.569Z,13.67
2019-06-01T14:19:53.821Z,13.48
2019-06-01T14:22:23.808Z,12.90
2019-06-01T14:25:11.475Z,12.37
2019-06-01T14:27:25.214Z,12.27
2019-06-01T14:29:56.399Z,12.18
2019-06-01T14:32:26.356Z,12.68
2019-06-01T14:34:56.962Z,12.25
2019-06-01T14:37:26.909Z,11.77
2019-06-01T14:39:57.067Z,12.45
2019-06-01T14:42:27.039Z,13.60
2019-06-01T14:44:58.038Z,13.40
2019-06-01T14:47:28.086Z,13.20
2019-06-01T14:49:58.193Z,13.45
2019-06-01T14:52:28.025Z,13.05
2019-06-01T14:54:58.065Z,12.45
2019-06-01T14:57:27.965Z,12.55
2019-06-01T14:59:58.862Z,12.78
2019-06-01T15:02:28.691Z,12.37
2019-06-01T15:04:58.734Z,12.63
2019-06-01T15:07:28.626Z,12.63
2019-06-01T15:09:58.517Z,12.30
2019-06-01T15:12:28.389Z,12.20
2019-06-01T15:14:59.492Z,11.65
2019-06-01T15:17:30.523Z,12.25
2019-06-01T15:20:00.365Z,11.18
2019-06-01T15:22:30.517Z,11.97
2019-06-01T15:25:00.360Z,11.97
2019-06-01T15:27:30.180Z,11.70
2019-06-01T15:30:00.035Z,11.33
2019-06-01T15:32:29.858Z,10.60
2019-06-01T15:35:00.027Z,10.45
2019-06-01T15:37:31.101Z,11.48
2019-06-01T15:40:00.945Z,11.40
2019-06-01T15:42:31.022Z,11.07
2019-06-01T15:45:01.498Z,10.60
2019-06-01T15:47:31.461Z,10.77
2019-06-01T15:50:02.666Z,9.63
2019-06-01T15:52:32.590Z,10.10
2019-06-01T15:55:04.670Z,11.68
2019-06-01T15:57:34.496Z,11.12
2019-06-01T16:00:09.598Z,10.35
2019-06-01T16:02:39.428Z,10.80
2019-06-01T16:05:10.149Z,11.38
2019-06-01T16:07:39.979Z,10.60
2019-06-01T16:10:10.164Z,10.23
2019-06-01T16:12:40.001Z,10.97
2019-06-01T16:15:10.339Z,11.18
2019-06-01T16:17:40.173Z,10.25
2019-06-01T16:20:10.546Z,11.50
2019-06-01T16:22:40.462Z,11.30
2019-06-01T16:25:21.277Z,11.08
2019-06-01T16:27:51.112Z,10.75
2019-06-01T16:30:20.958Z,11.53
2019-06-01T16:32:50.838Z,11.33
2019-06-01T16:35:20.677Z,11.12
2019-06-01T16:37:50.509Z,11.20
2019-06-01T16:40:20.417Z,11.57
2019-06-01T16:42:50.274Z,11.70
2019-06-01T16:45:20.184Z,11.38
2019-06-01T16:47:50.013Z,10.33
2019-06-01T16:50:19.997Z,10.95
2019-06-01T16:52:49.833Z,10.93
2019-06-01T16:55:19.668Z,11.20
2019-06-01T16:57:49.546Z,11.20
2019-06-01T17:00:19.682Z,11.85
2019-06-01T17:02:49.555Z,11.90
2019-06-01T17:05:19.438Z,11.88
2019-06-01T17:07:49.265Z,11.88
2019-06-01T17:10:26.167Z,12.45
2019-06-01T17:12:50.972Z,12.30
2019-06-01T17:15:20.962Z,11.50
2019-06-01T17:17:50.789Z,11.43
2019-06-01T17:20:41.082Z,12.37
2019-06-01T17:23:26.325Z,12.13
2019-06-01T17:25:43.523Z,11.22
2019-06-01T17:28:13.361Z,11.57
2019-06-01T17:30:43.203Z,11.85
2019-06-01T17:33:13.102Z,12.10
2019-06-01T17:35:42.942Z,11.80
2019-06-01T17:38:12.929Z,11.88
2019-06-01T17:40:43.552Z,12.05
2019-06-01T17:43:13.594Z,13.00
2019-06-01T17:45:43.469Z,13.60
2019-06-01T17:48:24.869Z,12.43
2019-06-01T17:50:44.865Z,12.53
2019-06-01T17:53:14.689Z,12.78
2019-06-01T17:55:44.604Z,13.45
2019-06-01T17:58:15.075Z,12.73
2019-06-01T18:00:45.041Z,12.70
2019-06-01T18:03:14.860Z,13.40
2019-06-01T18:05:45.763Z,14.23
2019-06-01T18:08:15.737Z,13.10
2019-06-01T18:10:54.027Z,12.80
2019-06-01T18:13:17.105Z,13.30
2019-06-01T18:15:50.005Z,12.73
2019-06-01T18:18:18.486Z,13.68
2019-06-01T18:20:48.464Z,13.48
2019-06-01T18:23:18.283Z,14.18
2019-06-01T18:25:48.280Z,15.15
2019-06-01T18:28:19.618Z,14.38
2019-06-01T18:30:50.771Z,14.07
2019-06-01T18:33:21.095Z,13.90
2019-06-01T18:35:50.988Z,14.23
2019-06-01T18:38:20.820Z,14.53
2019-06-01T18:40:50.722Z,15.53
2019-06-01T18:43:20.556Z,15.78
2019-06-01T18:45:50.481Z,15.83
2019-06-01T18:48:21.342Z,16.32
2019-06-01T18:50:51.189Z,15.63
2019-06-01T18:53:21.019Z,16.45
2019-06-01T18:55:50.950Z,16.55
2019-06-01T18:58:20.831Z,16.90
2019-06-01T19:00:50.694Z,16.57
2019-06-01T19:03:22.182Z,15.90
2019-06-01T19:05:52.264Z,15.85
2019-06-01T19:08:22.088Z,17.30
2019-06-01T19:10:52.004Z,16.62
2019-06-01T19:13:21.948Z,16.32
2019-06-01T19:15:51.802Z,16.70
2019-06-01T19:18:21.632Z,16.65
2019-06-01T19:20:51.510Z,17.40
2019-06-01T19:23:22.983Z,16.45
2019-06-01T19:25:52.918Z,17.55
2019-06-01T19:28:22.751Z,17.42
2019-06-01T19:30:52.601Z,17.87
2019-06-01T19:33:22.444Z,17.92
2019-06-01T19:35:53.131Z,18.95
2019-06-01T19:38:23.133Z,17.92
2019-06-01T19:40:52.972Z,17.92
2019-06-01T19:43:22.805Z,17.80
2019-06-01T19:45:52.645Z,18.15
2019-06-01T19:48:22.479Z,17.73
2019-06-01T19:50:53.414Z,17.40
2019-06-01T19:53:23.326Z,17.13
2019-06-01T19:55:53.159Z,17.50
2019-06-01T19:58:23.037Z,16.73
2019-06-01T20:00:52.861Z,17.60
2019-06-01T20:03:23.934Z,18.20
2019-06-01T20:05:53.861Z,18.00
2019-06-01T20:08:23.686Z,18.30
2019-06-01T20:10:53.517Z,18.25
2019-06-01T20:13:23.410Z,18.62
2019-06-01T20:15:53.280Z,19.50
2019-06-01T20:18:23.194Z,18.27
2019-06-01T20:20:53.085Z,17.70
2019-06-01T20:23:22.921Z,17.60
2019-06-01T20:25:52.762Z,18.65
2019-06-01T20:28:22.605Z,19.00
2019-06-01T20:30:52.422Z,18.40
2019-06-01T20:33:22.626Z,18.83
2019-06-01T20:35:52.685Z,17.92
2019-06-01T20:38:23.310Z,18.23
2019-06-01T20:40:53.517Z,18.07
2019-06-01T20:43:24.332Z,18.43
2019-06-01T20:45:56.741Z,20.02
2019-06-01T20:48:25.761Z,19.02
2019-06-01T20:50:56.565Z,18.65
2019-06-01T20:53:26.417Z,18.80
2019-06-01T20:55:56.241Z,18.67
2019-06-01T20:58:26.164Z,19.10
2019-06-01T21:00:56.003Z,19.02
2019-06-01T21:03:25.834Z,20.30
2019-06-01T21:05:55.672Z,19.73
2019-06-01T21:08:25.504Z,19.83
2019-06-01T21:10:56.405Z,19.92
2019-06-01T21:13:26.268Z,20.20
2019-06-01T21:15:56.106Z,19.32
2019-06-01T21:18:25.958Z,20.57
2019-06-01T21:20:55.788Z,21.48
2019-06-01T21:23:25.634Z,20.50
2019-06-01T21:25:56.043Z,21.87
2019-06-01T21:28:26.951Z,20.90
2019-06-01T21:30:56.845Z,21.37
2019-06-01T21:33:28.729Z,20.97
2019-06-01T21:35:58.208Z,20.62
2019-06-01T21:38:28.049Z,21.42
2019-06-01T21:40:57.963Z,20.60
2019-06-01T21:43:34.761Z,19.57
2019-06-01T21:46:00.398Z,20.88
2019-06-01T21:48:30.270Z,20.20
2019-06-01T21:51:00.167Z,20.48
2019-06-01T21:53:29.998Z,20.88
2019-06-01T21:55:59.832Z,20.50
2019-06-01T21:58:29.672Z,20.25
2019-06-01T22:01:00.622Z,20.20
2019-06-01T22:03:30.517Z,20.90
2019-06-01T22:06:00.339Z,21.05
2019-06-01T22:08:30.184Z,21.00
2019-06-01T22:11:00.111Z,20.92
2019-06-01T22:13:30.668Z,21.24
2019-06-01T22:16:00.505Z,20.82
2019-06-01T22:18:30.336Z,21.45
2019-06-01T22:21:00.181Z,21.50
2019-06-01T22:23:30.054Z,22.17
2019-06-01T22:26:00.949Z,20.90
2019-06-01T22:28:30.792Z,23.15
2019-06-01T22:31:00.649Z,22.52
2019-06-01T22:33:30.508Z,22.65
2019-06-01T22:36:00.415Z,21.50
2019-06-01T22:38:30.522Z,23.47
2019-06-01T22:41:00.336Z,22.67
2019-06-01T22:43:42.414Z,23.12
2019-06-01T22:46:01.751Z,22.65
2019-06-01T22:48:32.853Z,23.27
2019-06-01T22:51:02.835Z,23.47
2019-06-01T22:53:32.681Z,23.77
2019-06-01T22:56:03.477Z,22.62
2019-06-01T22:58:33.326Z,22.67
2019-06-01T23:01:03.180Z,24.27
2019-06-01T23:03:33.074Z,24.63
2019-06-01T23:06:02.906Z,24.27
2019-06-01T23:08:32.738Z,23.47
2019-06-01T23:11:02.569Z,22.82
2019-06-01T23:13:32.510Z,23.42
2019-06-01T23:16:03.393Z,24.63
2019-06-01T23:18:33.257Z,23.42
2019-06-01T23:21:03.101Z,23.47
2019-06-01T23:23:33.908Z,24.12
2019-06-01T23:26:04.877Z,22.93
2019-06-01T23:28:38.532Z,23.25
2019-06-01T23:31:06.257Z,23.67
2019-06-01T23:33:36.092Z,24.50
2019-06-01T23:36:06.218Z,23.12
2019-06-01T23:38:36.065Z,22.82
2019-06-01T23:41:05.953Z,24.98
2019-06-01T23:43:35.802Z,24.47
2019-06-01T23:46:05.630Z,25.00
2019-06-01T23:48:35.482Z,25.50
2019-06-01T23:51:05.320Z,24.47
2019-06-01T23:53:35.158Z,25.35
2019-06-01T23:56:04.994Z,24.75
2019-06-01T23:58:34.838Z,24.60
